Time;durP1;ratioP1;P1;durP2;ratioP2;P2;SDS_P1;SDS_P2;PMS_P1;PMS_P2;Temp;Humidity;BMP_temperature;BMP_pressure;BME280_temperature;BME280_humidity;BME280_pressure;Samples;Min_cycle;Max_cycle;Signal;HPM_P1;HPM_P2
2021/05/17 00:00:40;;;;;;;15.57;7.95;;;;;;;8.09;99.82;100073.09;5018598;28;20094;-75
2021/05/17 00:03:07;;;;;;;16.10;7.28;;;;;;;8.10;99.58;100072.09;5028015;28;20099;-76
2021/05/17 00:05:33;;;;;;;11.15;7.07;;;;;;;8.09;100.00;100079.13;5012363;28;20048;-79
2021/05/17 00:07:59;;;;;;;13.70;7.38;;;;;;;8.10;100.00;100080.78;5019567;28;20038;-76
2021/05/17 00:10:27;;;;;;;11.05;6.43;;;;;;;8.07;99.90;100075.03;5006162;28;20151;-76
2021/05/17 00:12:53;;;;;;;12.10;7.55;;;;;;;8.06;100.00;100071.59;5021232;28;20049;-77
2021/05/17 00:15:19;;;;;;;8.88;6.65;;;;;;;8.03;100.00;100069.28;5035389;28;20033;-79
2021/05/17 00:17:47;;;;;;;12.88;7.03;;;;;;;8.02;100.00;100070.22;5041993;28;20053;-79
2021/05/17 00:20:14;;;;;;;12.32;7.40;;;;;;;7.97;100.00;100057.63;5039947;28;20041;-79
2021/05/17 00:22:41;;;;;;;12.43;7.35;;;;;;;7.97;99.89;100060.25;5042243;28;20033;-76
2021/05/17 00:25:07;;;;;;;16.30;7.20;;;;;;;7.92;99.96;100061.66;5040978;28;20036;-76
2021/05/17 00:27:33;;;;;;;16.17;7.40;;;;;;;7.92;100.00;100056.41;5045151;28;20128;-76
2021/05/17 00:30:11;;;;;;;19.73;7.65;;;;;;;7.89;99.53;100056.69;5030081;28;20053;-77
2021/05/17 00:32:37;;;;;;;13.38;7.53;;;;;;;7.85;100.00;100057.97;5011259;28;20503;-77
2021/05/17 00:35:04;;;;;;;13.85;6.75;;;;;;;7.81;99.88;100062.66;5043234;28;20041;-76
2021/05/17 00:37:31;;;;;;;11.20;7.03;;;;;;;7.76;99.97;100052.66;5043620;28;20041;-76
2021/05/17 00:39:56;;;;;;;8.40;6.63;;;;;;;7.78;99.81;100061.16;5011071;28;20411;-78
2021/05/17 00:42:23;;;;;;;11.98;6.88;;;;;;;7.70;100.00;100063.66;5042917;28;20094;-75
2021/05/17 00:44:48;;;;;;;16.23;6.35;;;;;;;7.67;99.91;100060.53;5038661;28;20460;-77
2021/05/17 00:47:16;;;;;;;10.73;7.00;;;;;;;7.62;100.00;100058.34;5041970;28;20874;-77
2021/05/17 00:49:44;;;;;;;10.60;6.45;;;;;;;7.65;100.00;100063.28;5039075;28;20044;-78
2021/05/17 00:52:10;;;;;;;11.85;7.10;;;;;;;7.59;100.00;100058.63;5019640;28;20046;-77
2021/05/17 00:54:37;;;;;;;14.27;7.45;;;;;;;7.50;100.00;100054.28;5011572;28;20052;-78
2021/05/17 00:57:04;;;;;;;10.20;7.15;;;;;;;7.51;100.00;100058.53;5036204;28;20095;-78
2021/05/17 00:59:31;;;;;;;12.23;6.45;;;;;;;7.49;100.00;100063.88;5027867;28;20901;-75
2021/05/17 01:01:57;;;;;;;11.60;5.90;;;;;;;7.38;100.00;100061.44;5044164;28;20073;-76
2021/05/17 01:04:37;;;;;;;15.95;5.85;;;;;;;7.30;100.00;100063.97;5040660;28;20045;-78
2021/05/17 01:07:04;;;;;;;10.63;6.30;;;;;;;7.26;100.00;100060.81;5044488;28;20120;-77
2021/05/17 01:09:31;;;;;;;13.20;6.55;;;;;;;7.25;100.00;100068.78;5001222;28;20037;-77
2021/05/17 01:11:58;;;;;;;11.95;6.65;;;;;;;7.22;100.00;100060.25;5004630;28;20052;-76
2021/05/17 01:14:25;;;;;;;12.65;6.25;;;;;;;7.19;100.00;100068.38;5012840;28;20045;-75
2021/05/17 01:16:54;;;;;;;10.80;6.07;;;;;;;7.17;100.00;100065.06;5042782;28;20041;-76
2021/05/17 01:19:49;;;;;;;12.68;6.50;;;;;;;7.11;100.00;100064.84;5047935;28;20080;-78
2021/05/17 01:22:24;;;;;;;18.95;6.53;;;;;;;7.04;100.00;100061.13;5032363;28;20056;-74
2021/05/17 01:24:50;;;;;;;11.95;5.72;;;;;;;6.98;100.00;100060.72;5036155;28;20059;-76
2021/05/17 01:27:17;;;;;;;12.40;6.90;;;;;;;6.93;100.00;100055.13;5061958;28;20068;-76
2021/05/17 01:29:43;;;;;;;10.15;6.35;;;;;;;6.88;100.00;100061.72;5053620;28;20399;-75
2021/05/17 01:32:10;;;;;;;8.75;5.88;;;;;;;6.85;100.00;100062.00;5039472;28;20053;-78
2021/05/17 01:34:36;;;;;;;9.35;6.50;;;;;;;6.83;100.00;100060.31;5046115;28;20068;-76
2021/05/17 01:37:02;;;;;;;8.68;6.10;;;;;;;6.80;100.00;100058.03;5038824;28;20051;-77
2021/05/17 01:39:29;;;;;;;19.52;6.45;;;;;;;6.81;100.00;100062.25;5018558;28;20042;-76
2021/05/17 01:41:56;;;;;;;10.50;6.28;;;;;;;6.80;100.00;100063.22;5045197;28;20041;-77
2021/05/17 01:44:24;;;;;;;10.00;6.53;;;;;;;6.81;100.00;100061.44;5028870;28;20490;-77
2021/05/17 01:46:51;;;;;;;12.45;6.45;;;;;;;6.76;100.00;100061.88;5029919;28;20082;-78
2021/05/17 01:49:21;;;;;;;11.00;6.80;;;;;;;6.75;100.00;100062.00;5037176;28;20052;-75
2021/05/17 01:51:49;;;;;;;16.48;6.88;;;;;;;6.73;100.00;100063.94;5044970;28;20046;-75
2021/05/17 01:54:17;;;;;;;12.57;7.53;;;;;;;6.70;100.00;100064.19;5034059;28;20037;-75
2021/05/17 01:56:45;;;;;;;11.68;6.78;;;;;;;6.64;100.00;100052.53;5025458;28;20136;-76
2021/05/17 01:59:31;;;;;;;11.45;6.53;;;;;;;6.64;100.00;100062.97;5025364;28;20084;-76
2021/05/17 02:01:58;;;;;;;12.20;7.60;;;;;;;6.57;100.00;100062.69;5027911;28;20119;-75
2021/05/17 02:04:25;;;;;;;13.25;6.97;;;;;;;6.56;100.00;100062.84;5026010;28;20132;-77
2021/05/17 02:06:53;;;;;;;13.13;6.72;;;;;;;6.52;100.00;100059.69;5035072;28;20051;-77
2021/05/17 02:09:19;;;;;;;10.43;6.20;;;;;;;6.46;100.00;100054.19;5024654;28;20047;-76
2021/05/17 02:11:45;;;;;;;13.25;7.07;;;;;;;6.45;100.00;100058.56;5039836;28;20052;-76
2021/05/17 02:14:23;;;;;;;13.13;7.45;;;;;;;6.43;100.00;100061.31;5012917;28;20036;-76
2021/05/17 02:16:51;;;;;;;12.35;7.00;;;;;;;6.45;100.00;100053.34;5043404;28;20092;-74
2021/05/17 02:19:22;;;;;;;11.00;7.03;;;;;;;6.49;100.00;100059.13;5042683;28;20049;-76
2021/05/17 02:21:50;;;;;;;15.45;7.20;;;;;;;6.40;100.00;100056.38;5018317;28;20954;-75
2021/05/17 02:24:16;;;;;;;18.48;7.28;;;;;;;6.45;100.00;100065.56;5024587;28;20049;-76
2021/05/17 02:26:42;;;;;;;11.10;6.55;;;;;;;6.52;100.00;100064.06;5009251;28;20045;-75
2021/05/17 02:29:10;;;;;;;11.65;7.20;;;;;;;6.54;100.00;100069.97;5005798;28;20827;-76
2021/05/17 02:31:36;;;;;;;11.25;7.15;;;;;;;6.63;100.00;100054.31;5022822;28;20045;-75
2021/05/17 02:34:03;;;;;;;11.32;7.47;;;;;;;6.67;100.00;100065.31;5007655;28;20845;-76
2021/05/17 02:36:29;;;;;;;10.25;7.22;;;;;;;6.63;100.00;100061.34;5014670;28;20048;-76
2021/05/17 02:38:56;;;;;;;11.27;7.05;;;;;;;6.59;100.00;100063.38;5021056;28;20130;-76
2021/05/17 02:41:23;;;;;;;9.90;6.35;;;;;;;6.56;100.00;100063.66;5004360;28;20076;-76
2021/05/17 02:43:50;;;;;;;10.23;6.93;;;;;;;6.51;100.00;100063.22;5020687;28;20600;-76
2021/05/17 02:46:17;;;;;;;8.40;6.05;;;;;;;6.49;100.00;100062.53;4999256;28;20115;-76
2021/05/17 02:48:49;;;;;;;11.75;6.45;;;;;;;6.53;100.00;100068.31;4991808;28;20041;-76
2021/05/17 02:51:14;;;;;;;7.50;5.30;;;;;;;6.49;100.00;100064.34;5020412;28;20054;-75
2021/05/17 02:53:40;;;;;;;9.73;6.57;;;;;;;6.51;100.00;100070.22;5017152;28;20050;-75
2021/05/17 02:56:14;;;;;;;8.05;5.45;;;;;;;6.46;100.00;100073.25;5031351;28;20055;-76
2021/05/17 02:58:50;;;;;;;9.73;6.00;;;;;;;6.49;100.00;100075.56;5004766;28;20041;-77
2021/05/17 03:01:28;;;;;;;11.20;5.80;;;;;;;6.49;100.00;100069.53;5024815;28;20426;-74
2021/05/17 03:03:57;;;;;;;9.57;6.18;;;;;;;6.51;100.00;100078.03;5024426;28;20049;-75
2021/05/17 03:06:33;;;;;;;10.48;5.78;;;;;;;6.47;100.00;100074.88;5038761;28;20076;-75
2021/05/17 03:09:05;;;;;;;9.75;6.00;;;;;;;6.46;100.00;100070.66;5030904;28;20061;-74
2021/05/17 03:11:44;;;;;;;10.88;6.35;;;;;;;6.42;100.00;100080.53;5046778;28;20147;-75
2021/05/17 03:14:16;;;;;;;10.18;6.38;;;;;;;6.39;100.00;100080.78;5059609;28;20045;-75
2021/05/17 03:16:47;;;;;;;11.60;6.50;;;;;;;6.36;100.00;100080.22;5041451;28;20033;-75
2021/05/17 03:19:14;;;;;;;10.57;6.43;;;;;;;6.29;100.00;100079.09;5045163;28;20103;-75
2021/05/17 03:21:41;;;;;;;11.23;6.55;;;;;;;6.24;100.00;100085.56;5027392;28;20045;-75
2021/05/17 03:24:07;;;;;;;12.80;6.43;;;;;;;6.26;100.00;100089.81;5028560;28;20049;-76
2021/05/17 03:26:35;;;;;;;9.43;6.70;;;;;;;6.25;100.00;100088.97;5048569;28;20102;-76
2021/05/17 03:29:01;;;;;;;8.35;6.45;;;;;;;6.28;100.00;100086.09;5039630;28;20095;-75
2021/05/17 03:31:27;;;;;;;9.73;6.10;;;;;;;6.29;100.00;100085.16;5046358;28;20040;-76
2021/05/17 03:33:56;;;;;;;8.68;5.75;;;;;;;6.30;100.00;100089.41;5047965;28;20682;-75
2021/05/17 03:36:22;;;;;;;12.25;6.68;;;;;;;6.31;100.00;100092.81;5028880;28;20060;-75
2021/05/17 03:38:47;;;;;;;18.00;6.97;;;;;;;6.33;100.00;100096.09;5040551;28;20044;-76
2021/05/17 03:41:13;;;;;;;12.95;7.05;;;;;;;6.33;100.00;100089.13;5042652;28;20199;-76
2021/05/17 03:43:38;;;;;;;8.20;6.30;;;;;;;6.34;100.00;100093.38;5027367;28;20042;-74
2021/05/17 03:46:04;;;;;;;9.65;6.50;;;;;;;6.34;100.00;100093.38;5009631;28;20060;-76
2021/05/17 03:48:29;;;;;;;8.55;6.15;;;;;;;6.35;100.00;100099.44;5042545;28;20057;-75
2021/05/17 03:50:55;;;;;;;8.20;6.55;;;;;;;6.37;100.00;100090.50;5019964;28;20037;-74
2021/05/17 03:53:20;;;;;;;10.30;6.57;;;;;;;6.32;100.00;100086.66;5041008;28;20053;-75
2021/05/17 03:55:46;;;;;;;9.25;6.28;;;;;;;6.30;100.00;100076.38;5043082;28;20048;-75
2021/05/17 03:58:11;;;;;;;13.57;7.25;;;;;;;6.29;100.00;100073.91;5039389;28;20414;-73
2021/05/17 04:00:37;;;;;;;10.93;6.57;;;;;;;6.31;100.00;100079.78;5029267;28;20106;-75
2021/05/17 04:03:11;;;;;;;12.90;7.32;;;;;;;6.32;100.00;100095.28;5043620;28;20113;-75
2021/05/17 04:13:48;;;;;;;10.45;6.93;;;;;;;6.86;100.00;100107.97;5041601;28;20047;-75
2021/05/17 04:16:14;;;;;;;15.10;7.72;;;;;;;6.96;100.00;100116.59;5030447;28;20128;-75
2021/05/17 04:18:40;;;;;;;9.73;7.35;;;;;;;7.04;100.00;100114.09;5046602;28;20756;-75
2021/05/17 04:21:06;;;;;;;13.07;6.85;;;;;;;7.02;100.00;100110.81;5046085;28;20119;-76
2021/05/17 04:23:31;;;;;;;10.68;6.72;;;;;;;7.09;100.00;100122.34;5062989;28;20575;-75
2021/05/17 04:25:57;;;;;;;12.23;6.57;;;;;;;7.23;100.00;100123.69;5061144;28;20041;-75
2021/05/17 04:28:23;;;;;;;12.32;6.93;;;;;;;7.40;100.00;100120.38;5019289;28;20041;-75
2021/05/17 04:30:48;;;;;;;10.27;6.93;;;;;;;7.53;100.00;100122.66;5046295;28;20048;-76
2021/05/17 04:33:15;;;;;;;11.57;6.28;;;;;;;7.75;100.00;100126.72;5047741;28;20049;-76
2021/05/17 04:35:40;;;;;;;10.48;5.93;;;;;;;7.90;100.00;100134.09;5043473;28;20055;-75
2021/05/17 04:38:06;;;;;;;11.02;6.90;;;;;;;8.00;100.00;100134.84;5036538;28;20067;-75
2021/05/17 04:40:31;;;;;;;8.90;6.07;;;;;;;8.06;100.00;100130.84;5025586;28;20049;-76
2021/05/17 04:42:57;;;;;;;9.88;5.75;;;;;;;8.10;100.00;100134.78;5017259;28;20414;-75
2021/05/17 04:45:24;;;;;;;9.48;5.80;;;;;;;8.14;99.96;100137.00;5047871;28;20045;-76
2021/05/17 04:47:51;;;;;;;12.25;6.47;;;;;;;8.18;100.00;100140.13;5047343;28;20126;-76
2021/05/17 04:50:17;;;;;;;8.10;5.90;;;;;;;8.24;99.52;100144.78;5045758;28;20106;-76
2021/05/17 04:52:42;;;;;;;9.07;5.80;;;;;;;8.31;99.85;100142.41;5040425;28;20053;-76
2021/05/17 04:55:09;;;;;;;9.57;5.57;;;;;;;8.37;99.21;100136.59;5034376;28;20036;-76
2021/05/17 04:57:35;;;;;;;8.15;5.15;;;;;;;8.44;98.20;100139.44;5045344;28;20079;-75
2021/05/17 05:00:01;;;;;;;7.20;5.00;;;;;;;8.43;97.09;100135.22;5044979;28;20041;-74
2021/05/17 05:02:26;;;;;;;6.57;4.82;;;;;;;8.47;97.12;100136.56;5044885;28;20190;-76
2021/05/17 05:04:53;;;;;;;10.05;5.28;;;;;;;8.60;96.48;100141.44;5031235;28;20541;-76
2021/05/17 05:07:20;;;;;;;9.80;4.93;;;;;;;8.72;96.50;100140.22;5019449;28;20045;-76
2021/05/17 05:09:45;;;;;;;9.23;4.53;;;;;;;8.81;96.57;100135.91;5018170;28;20044;-75
2021/05/17 05:12:11;;;;;;;7.72;4.72;;;;;;;8.91;95.48;100134.88;5035970;28;20057;-76
2021/05/17 05:14:37;;;;;;;8.93;4.95;;;;;;;9.00;94.77;100138.34;5042442;28;20044;-77
2021/05/17 05:17:03;;;;;;;11.73;4.93;;;;;;;9.08;94.35;100137.59;5033190;28;20442;-76
2021/05/17 05:19:29;;;;;;;10.60;4.70;;;;;;;9.23;95.17;100141.34;5042141;28;20037;-76
2021/05/17 05:21:54;;;;;;;9.43;4.60;;;;;;;9.41;94.07;100145.69;5041247;28;20512;-77
2021/05/17 05:24:20;;;;;;;6.38;4.40;;;;;;;9.65;93.22;100139.78;5051194;28;20490;-75
2021/05/17 05:29:24;;;;;;;5.80;4.50;;;;;;;9.98;90.66;100134.72;5037732;28;20080;-76
2021/05/17 05:34:34;;;;;;;9.40;4.20;;;;;;;10.01;90.70;100134.41;5042295;28;20052;-77
2021/05/17 05:37:01;;;;;;;6.55;4.10;;;;;;;9.97;90.09;100139.13;5045152;28;20052;-77
2021/05/17 05:39:27;;;;;;;6.40;4.25;;;;;;;10.00;89.66;100144.06;5036387;28;20194;-75
2021/05/17 05:41:52;;;;;;;7.20;4.50;;;;;;;9.96;90.85;100141.91;5035575;28;20119;-77
2021/05/17 05:44:18;;;;;;;9.95;5.30;;;;;;;9.99;90.38;100147.66;5050349;28;20056;-76
2021/05/17 05:46:44;;;;;;;10.23;4.57;;;;;;;9.99;89.54;100147.66;5031569;28;20317;-77
2021/05/17 05:49:11;;;;;;;6.72;5.05;;;;;;;9.99;90.54;100144.22;5044836;28;20494;-77
2021/05/17 05:51:37;;;;;;;9.60;5.32;;;;;;;10.08;91.08;100159.81;5039778;28;20033;-79
2021/05/17 05:54:03;;;;;;;11.52;5.10;;;;;;;10.16;91.00;100163.44;5041929;28;20045;-78
2021/05/17 05:56:29;;;;;;;9.82;5.38;;;;;;;10.22;90.34;100163.63;5047066;28;20132;-76
2021/05/17 05:58:55;;;;;;;8.57;4.80;;;;;;;10.29;90.58;100163.81;5041473;28;20056;-76
2021/05/17 06:01:21;;;;;;;10.45;5.60;;;;;;;10.29;90.32;100159.41;5046622;28;20049;-77
2021/05/17 06:03:46;;;;;;;8.85;5.03;;;;;;;10.32;90.95;100174.84;5046232;28;20056;-77
2021/05/17 06:06:12;;;;;;;7.93;4.90;;;;;;;10.35;90.00;100165.03;5054145;28;20052;-77
2021/05/17 06:08:43;;;;;;;11.55;4.85;;;;;;;10.44;89.59;100178.00;5045144;28;20041;-77
2021/05/17 06:11:10;;;;;;;7.95;4.95;;;;;;;10.44;89.51;100177.19;5046354;28;20063;-77
2021/05/17 06:13:38;;;;;;;10.50;5.10;;;;;;;10.46;89.91;100183.09;5040476;28;20099;-77
2021/05/17 06:16:05;;;;;;;9.35;5.15;;;;;;;10.48;90.52;100178.50;5041429;28;20048;-75
2021/05/17 06:18:31;;;;;;;8.18;4.95;;;;;;;10.56;89.38;100194.25;5032570;28;20049;-74
2021/05/17 06:20:57;;;;;;;11.38;5.35;;;;;;;10.54;89.49;100196.22;5011887;28;20042;-77
2021/05/17 06:23:23;;;;;;;9.13;5.10;;;;;;;10.61;90.32;100199.84;5037958;28;20391;-76
2021/05/17 06:25:50;;;;;;;7.28;4.80;;;;;;;10.65;88.94;100192.47;5045697;28;20052;-77
2021/05/17 06:28:20;;;;;;;8.55;5.45;;;;;;;10.78;89.11;100203.31;5046388;28;20041;-76
2021/05/17 06:30:52;;;;;;;7.55;5.00;;;;;;;10.83;88.70;100203.66;5042822;28;20033;-76
2021/05/17 06:33:21;;;;;;;9.23;6.00;;;;;;;10.84;89.39;100194.00;5046680;28;20118;-76
2021/05/17 06:35:51;;;;;;;8.75;5.82;;;;;;;10.81;89.59;100200.38;5044160;28;20041;-77
2021/05/17 06:38:17;;;;;;;9.27;6.05;;;;;;;10.88;90.33;100201.34;5048257;28;20041;-76
2021/05/17 06:40:43;;;;;;;9.80;6.57;;;;;;;10.85;91.11;100204.31;5044460;28;20045;-79
2021/05/17 06:43:09;;;;;;;12.30;5.93;;;;;;;11.04;89.78;100197.94;5048054;28;20525;-77
2021/05/17 06:45:35;;;;;;;12.07;6.05;;;;;;;11.06;88.10;100206.47;5049923;28;20049;-74
2021/05/17 06:48:01;;;;;;;11.02;6.50;;;;;;;11.05;87.57;100206.63;5044188;28;20488;-78
2021/05/17 06:50:28;;;;;;;7.78;5.22;;;;;;;11.09;86.50;100210.56;5048881;28;20133;-75
2021/05/17 06:52:55;;;;;;;7.75;5.65;;;;;;;11.18;87.47;100211.41;5041435;28;20546;-75
2021/05/17 06:55:23;;;;;;;11.75;6.25;;;;;;;11.22;86.97;100210.91;5029983;28;20133;-77
2021/05/17 07:00:27;;;;;;;11.15;6.70;;;;;;;11.41;86.55;100215.00;5051478;28;20041;-75
2021/05/17 07:02:56;;;;;;;11.93;6.90;;;;;;;11.72;85.52;100221.41;5052626;28;20078;-76
2021/05/17 07:05:22;;;;;;;10.45;6.28;;;;;;;11.88;85.24;100224.84;5051080;28;20051;-75
2021/05/17 07:13:04;;;;;;;12.60;6.57;;;;;;;12.01;82.56;100218.25;5049509;28;20498;-75
2021/05/17 07:15:30;;;;;;;9.95;6.22;;;;;;;11.99;83.99;100225.47;5045208;28;20078;-75
2021/05/17 07:17:55;;;;;;;14.13;6.43;;;;;;;12.02;83.84;100225.16;5065294;28;20045;-78
2021/05/17 07:20:32;;;;;;;10.60;6.22;;;;;;;12.04;83.12;100228.44;5046570;28;20051;-75
2021/05/17 07:25:42;;;;;;;11.13;6.28;;;;;;;12.02;82.45;100225.97;5045861;28;20044;-75
2021/05/17 07:28:07;;;;;;;11.02;6.40;;;;;;;11.93;82.39;100219.09;5049319;28;20102;-76
2021/05/17 07:30:33;;;;;;;9.38;5.72;;;;;;;12.04;82.33;100220.56;5043235;28;20037;-75
2021/05/17 07:33:00;;;;;;;11.38;6.30;;;;;;;12.43;81.27;100220.56;5047732;28;20066;-76
2021/05/17 07:35:25;;;;;;;11.60;5.85;;;;;;;12.83;79.50;100216.06;5047384;28;20071;-75
2021/05/17 07:37:51;;;;;;;11.82;5.88;;;;;;;13.14;76.51;100223.09;5049053;28;20498;-76
2021/05/17 07:40:16;;;;;;;8.95;5.55;;;;;;;13.19;75.77;100222.59;5048870;28;20052;-77
2021/05/17 07:42:42;;;;;;;8.52;5.38;;;;;;;13.04;76.09;100222.53;5047339;28;20041;-76
2021/05/17 07:45:08;;;;;;;9.65;5.20;;;;;;;12.80;76.76;100237.47;5036644;28;20114;-76
2021/05/17 07:47:34;;;;;;;9.68;5.72;;;;;;;12.50;76.68;100239.09;5047720;28;20047;-76
2021/05/17 07:50:00;;;;;;;9.18;5.80;;;;;;;12.43;77.57;100238.13;5045215;28;20053;-76
2021/05/17 07:52:25;;;;;;;11.70;5.88;;;;;;;12.61;77.89;100238.72;5011364;28;20037;-76
2021/05/17 07:54:51;;;;;;;9.07;5.93;;;;;;;13.09;79.91;100236.00;5043583;28;20045;-76
2021/05/17 07:57:17;;;;;;;9.10;5.68;;;;;;;13.27;74.58;100234.88;5045930;28;20069;-75
2021/05/17 07:59:42;;;;;;;11.52;5.85;;;;;;;13.17;75.08;100232.47;5043167;28;20086;-76
2021/05/17 08:02:08;;;;;;;7.32;5.18;;;;;;;13.36;75.15;100233.84;5044349;28;20223;-75
2021/05/17 08:04:34;;;;;;;9.20;5.40;;;;;;;13.47;74.26;100236.06;5046300;28;20069;-75
2021/05/17 08:07:00;;;;;;;11.82;5.10;;;;;;;13.66;73.50;100241.84;5040672;28;20057;-77
2021/05/17 08:09:25;;;;;;;7.05;4.32;;;;;;;13.86;72.52;100234.22;5040142;28;20087;-78
2021/05/17 08:11:51;;;;;;;9.27;4.18;;;;;;;14.14;73.37;100232.56;5047449;28;20514;-75
2021/05/17 08:14:18;;;;;;;11.75;4.25;;;;;;;14.47;68.92;100229.56;5066301;28;20661;-77
2021/05/17 08:16:44;;;;;;;6.95;4.68;;;;;;;14.72;69.61;100230.09;5034533;28;20132;-74
2021/05/17 08:19:10;;;;;;;10.07;3.90;;;;;;;14.89;65.64;100237.78;5046352;28;20053;-79
2021/05/17 08:21:35;;;;;;;9.13;3.70;;;;;;;15.15;65.58;100239.88;5028912;28;20068;-75
2021/05/17 08:24:01;;;;;;;6.53;3.40;;;;;;;15.39;64.40;100238.69;5035022;28;20040;-74
2021/05/17 08:26:26;;;;;;;7.90;3.22;;;;;;;15.45;62.60;100234.47;5038919;28;20418;-76
2021/05/17 08:28:52;;;;;;;4.78;2.90;;;;;;;15.36;62.25;100229.28;5042285;28;20518;-77
2021/05/17 08:31:20;;;;;;;5.57;3.55;;;;;;;15.18;64.76;100229.75;5032862;28;20426;-76
2021/05/17 08:33:46;;;;;;;8.70;3.30;;;;;;;15.15;63.63;100232.75;5033946;28;20127;-75
2021/05/17 08:36:30;;;;;;;7.57;3.60;;;;;;;15.33;64.38;100226.22;5023355;28;20039;-76
2021/05/17 08:38:56;;;;;;;5.20;2.53;;;;;;;15.16;67.02;100228.28;5048182;28;20052;-77
2021/05/17 08:41:21;;;;;;;4.60;2.50;;;;;;;14.86;66.32;100238.97;5063099;28;20110;-76
2021/05/17 08:43:47;;;;;;;7.88;3.00;;;;;;;14.49;67.57;100237.31;5046061;28;20044;-75
2021/05/17 08:46:13;;;;;;;6.20;2.08;;;;;;;14.25;69.38;100241.84;5047701;28;20057;-76
2021/05/17 08:48:57;;;;;;;9.63;2.30;;;;;;;14.14;72.08;100237.84;5036174;28;20131;-75
2021/05/17 08:51:42;;;;;;;7.43;2.05;;;;;;;14.15;73.25;100236.06;5048161;28;20051;-75
2021/05/17 08:54:26;;;;;;;8.43;3.05;;;;;;;14.55;74.59;100228.63;5040927;28;20742;-75
2021/05/17 08:57:10;;;;;;;8.80;3.28;;;;;;;15.30;67.36;100223.97;5047518;28;20076;-76
2021/05/17 08:59:54;;;;;;;10.50;2.88;;;;;;;16.05;67.99;100232.25;5046031;28;20084;-75
2021/05/17 09:02:39;;;;;;;3.95;2.35;;;;;;;16.35;61.84;100233.63;5041605;28;20043;-76
2021/05/17 09:05:25;;;;;;;11.13;2.70;;;;;;;15.77;66.56;100236.56;5039648;28;20049;-77
2021/05/17 09:08:09;;;;;;;4.20;1.63;;;;;;;15.48;59.98;100231.41;5044637;28;20120;-75
2021/05/17 09:10:53;;;;;;;6.07;1.52;;;;;;;15.29;65.05;100230.25;5044939;28;20086;-75
2021/05/17 09:13:37;;;;;;;6.10;1.88;;;;;;;15.12;66.27;100237.59;5035029;28;20095;-78
2021/05/17 09:16:22;;;;;;;5.07;1.58;;;;;;;14.92;64.09;100232.13;5029910;28;20091;-75
2021/05/17 09:19:13;;;;;;;4.75;1.83;;;;;;;14.89;63.88;100233.31;5046210;28;20052;-75
2021/05/17 09:22:12;;;;;;;4.57;1.63;;;;;;;14.96;66.78;100241.31;5042299;28;20581;-76
2021/05/17 09:25:01;;;;;;;11.32;2.30;;;;;;;14.78;61.43;100237.25;5026236;28;20056;-77
2021/05/17 09:27:45;;;;;;;5.57;1.92;;;;;;;14.86;65.07;100230.22;5027157;28;20184;-77
2021/05/17 09:31:06;;;;;;;7.63;2.00;;;;;;;14.89;62.08;100232.50;5044214;28;20067;-77
2021/05/17 09:33:52;;;;;;;7.50;1.60;;;;;;;14.92;62.87;100238.22;5002409;28;20069;-76
2021/05/17 09:36:40;;;;;;;7.05;1.52;;;;;;;15.46;58.86;100231.59;5020935;28;20080;-76
2021/05/17 09:39:10;;;;;;;3.83;1.33;;;;;;;15.52;56.70;100233.50;5009372;28;20708;-75
2021/05/17 09:41:46;;;;;;;4.22;1.50;;;;;;;15.68;61.51;100235.03;5022462;28;20049;-77
2021/05/17 09:44:17;;;;;;;6.70;1.40;;;;;;;16.28;57.21;100235.44;5009040;28;20057;-76
2021/05/17 09:46:54;;;;;;;4.65;1.38;;;;;;;16.49;53.70;100234.50;5026753;28;20041;-77
2021/05/17 09:49:32;;;;;;;3.15;1.20;;;;;;;16.42;56.16;100232.84;5023151;28;20049;-77
2021/05/17 09:52:11;;;;;;;5.97;1.30;;;;;;;16.02;55.31;100233.44;5041597;28;20037;-74
2021/05/17 09:54:46;;;;;;;4.68;1.30;;;;;;;15.58;55.11;100227.44;5014678;28;20543;-75
2021/05/17 09:57:16;;;;;;;3.95;1.30;;;;;;;15.42;58.65;100238.28;5025538;28;20045;-76
2021/05/17 09:59:50;;;;;;;5.13;1.40;;;;;;;15.24;60.98;100237.91;5025700;28;20057;-77
2021/05/17 10:02:26;;;;;;;7.75;1.58;;;;;;;15.09;61.47;100227.44;5051081;28;20053;-75
2021/05/17 10:04:52;;;;;;;5.20;1.45;;;;;;;15.00;62.87;100237.28;5042395;28;20068;-77
2021/05/17 10:07:17;;;;;;;3.22;1.10;;;;;;;15.04;66.75;100238.53;5024619;28;20150;-76
2021/05/17 10:09:44;;;;;;;4.95;1.30;;;;;;;15.01;69.15;100233.63;5030106;28;20183;-77
2021/05/17 10:12:09;;;;;;;6.10;1.50;;;;;;;15.02;65.71;100240.56;5015006;28;20182;-76
2021/05/17 10:14:35;;;;;;;5.50;1.52;;;;;;;14.90;65.80;100242.88;5032264;28;20968;-78
2021/05/17 10:17:01;;;;;;;5.28;1.40;;;;;;;15.04;68.37;100238.53;5026901;28;20457;-75
2021/05/17 10:19:28;;;;;;;6.28;2.05;;;;;;;15.26;61.78;100244.66;5023903;28;20049;-75
2021/05/17 10:21:53;;;;;;;4.63;1.60;;;;;;;15.26;63.31;100243.84;5033494;28;20227;-75
2021/05/17 10:24:19;;;;;;;2.72;1.40;;;;;;;15.18;64.61;100247.41;5060000;28;20127;-73
2021/05/17 10:26:46;;;;;;;5.28;1.55;;;;;;;15.17;64.03;100254.53;5059405;28;20501;-76
2021/05/17 10:29:12;;;;;;;7.50;1.50;;;;;;;14.93;62.57;100249.59;5029939;28;20045;-77
2021/05/17 10:31:51;;;;;;;3.92;1.25;;;;;;;14.90;63.43;100250.81;5048427;28;20052;-76
2021/05/17 10:34:17;;;;;;;5.13;1.60;;;;;;;14.94;62.77;100254.69;5047172;28;20502;-76
2021/05/17 10:36:56;;;;;;;4.03;1.42;;;;;;;14.94;64.65;100256.53;5048235;28;20052;-77
2021/05/17 10:39:29;;;;;;;4.20;1.60;;;;;;;14.83;67.83;100257.03;5028329;28;20042;-76
2021/05/17 10:42:04;;;;;;;3.65;1.52;;;;;;;14.77;65.51;100258.59;5031091;28;20106;-77
2021/05/17 10:47:40;;;;;;;4.30;0.90;;;;;;;14.16;63.68;100274.59;5041233;28;20033;-75
2021/05/17 10:50:14;;;;;;;1.67;0.50;;;;;;;13.59;64.90;100262.78;5043847;28;20045;-75
2021/05/17 10:52:40;;;;;;;2.55;0.40;;;;;;;13.18;65.21;100279.69;5048502;28;20044;-74
2021/05/17 10:55:12;;;;;;;1.27;0.40;;;;;;;12.86;66.55;100283.31;5049347;28;20049;-75
2021/05/17 10:57:58;;;;;;;6.80;0.65;;;;;;;12.55;67.96;100292.03;5049411;28;20048;-75
2021/05/17 11:00:25;;;;;;;3.00;0.60;;;;;;;12.48;70.46;100290.25;5046959;28;20045;-76
2021/05/17 11:03:07;;;;;;;4.03;0.57;;;;;;;12.49;71.83;100294.50;5049355;28;20065;-76
2021/05/17 11:05:33;;;;;;;3.03;0.50;;;;;;;12.61;71.18;100295.78;5044174;28;20048;-76
2021/05/17 11:08:02;;;;;;;0.85;0.43;;;;;;;12.78;71.41;100299.16;5029196;28;20099;-76
2021/05/17 11:10:39;;;;;;;1.38;0.57;;;;;;;12.96;72.73;100298.91;5044814;28;20141;-75
2021/05/17 11:13:06;;;;;;;2.90;0.50;;;;;;;13.15;73.00;100295.84;5044476;28;20063;-76
2021/05/17 11:15:39;;;;;;;2.65;0.60;;;;;;;13.35;73.87;100292.78;5045804;28;20121;-76
2021/05/17 11:18:04;;;;;;;2.10;0.45;;;;;;;13.52;72.80;100304.00;5044569;28;20049;-76
2021/05/17 11:20:51;;;;;;;3.45;0.30;;;;;;;13.70;73.37;100304.53;5047943;28;20045;-76
2021/05/17 11:23:23;;;;;;;1.20;0.40;;;;;;;13.92;70.59;100307.31;5050451;28;20048;-76
2021/05/17 11:26:14;;;;;;;2.78;0.40;;;;;;;14.09;69.49;100306.16;5047089;28;20946;-77
2021/05/17 11:28:41;;;;;;;1.15;0.57;;;;;;;14.37;69.22;100311.66;5045761;28;20048;-74
2021/05/17 11:31:13;;;;;;;2.45;0.70;;;;;;;14.74;68.27;100307.28;5046519;28;20123;-73
2021/05/17 11:34:03;;;;;;;2.67;0.70;;;;;;;15.06;68.77;100307.03;5049333;28;20056;-76
2021/05/17 11:36:48;;;;;;;1.00;0.47;;;;;;;15.48;63.13;100305.41;5042824;28;20045;-75
2021/05/17 11:39:22;;;;;;;1.27;0.50;;;;;;;15.81;64.38;100308.38;5044590;28;20055;-77
2021/05/17 11:41:55;;;;;;;0.82;0.40;;;;;;;15.76;62.27;100303.69;5049689;28;20065;-77
2021/05/17 11:44:30;;;;;;;3.60;0.70;;;;;;;15.62;62.26;100309.81;5048053;28;20053;-77
2021/05/17 11:46:58;;;;;;;1.10;0.50;;;;;;;15.50;63.26;100312.16;5047340;28;20107;-77
2021/05/17 11:49:26;;;;;;;1.85;0.68;;;;;;;15.63;62.70;100305.34;5048318;28;20162;-77
2021/05/17 11:51:57;;;;;;;1.52;0.45;;;;;;;16.02;63.00;100302.22;5048704;28;20056;-76
2021/05/17 11:54:25;;;;;;;0.95;0.50;;;;;;;16.82;60.71;100308.00;5047982;28;20520;-75
2021/05/17 11:56:55;;;;;;;2.40;0.50;;;;;;;17.42;59.45;100307.31;5050002;28;20072;-75
2021/05/17 11:59:26;;;;;;;0.77;0.50;;;;;;;17.13;57.68;100304.00;5046281;28;20045;-76